sensor_id;sensor_type;location;lat;lon;timestamp;P1;durP1;ratioP1;P2;durP2;ratioP2
56039;SDS011;43937;41.366;2.072;2023-08-21T00:01:05;15.70;;;6.57;;
56039;SDS011;43937;41.366;2.072;2023-08-21T00:03:30;13.38;;;6.55;;
56039;SDS011;43937;41.366;2.072;2023-08-21T00:05:56;17.77;;;6.40;;
56039;SDS011;43937;41.366;2.072;2023-08-21T00:08:21;20.20;;;6.70;;
56039;SDS011;43937;41.366;2.072;2023-08-21T00:10:47;20.73;;;6.78;;
56039;SDS011;43937;41.366;2.072;2023-08-21T00:13:13;19.00;;;7.07;;
56039;SDS011;43937;41.366;2.072;2023-08-21T00:15:38;20.00;;;6.72;;
56039;SDS011;43937;41.366;2.072;2023-08-21T00:18:04;19.05;;;7.30;;
56039;SDS011;43937;41.366;2.072;2023-08-21T00:20:30;14.43;;;5.90;;
56039;SDS011;43937;41.366;2.072;2023-08-21T00:22:56;14.27;;;6.25;;
56039;SDS011;43937;41.366;2.072;2023-08-21T00:25:21;19.75;;;6.30;;
56039;SDS011;43937;41.366;2.072;2023-08-21T00:27:47;18.40;;;6.03;;
56039;SDS011;43937;41.366;2.072;2023-08-21T00:30:12;13.32;;;5.90;;
56039;SDS011;43937;41.366;2.072;2023-08-21T00:32:40;17.17;;;5.80;;
56039;SDS011;43937;41.366;2.072;2023-08-21T00:35:05;12.80;;;5.72;;
56039;SDS011;43937;41.366;2.072;2023-08-21T00:37:31;11.93;;;5.32;;
56039;SDS011;43937;41.366;2.072;2023-08-21T00:39:57;17.70;;;5.85;;
56039;SDS011;43937;41.366;2.072;2023-08-21T00:42:22;12.85;;;5.47;;
56039;SDS011;43937;41.366;2.072;2023-08-21T00:44:48;13.10;;;5.95;;
56039;SDS011;43937;41.366;2.072;2023-08-21T00:47:13;15.13;;;6.13;;
56039;SDS011;43937;41.366;2.072;2023-08-21T00:49:39;17.90;;;6.07;;
56039;SDS011;43937;41.366;2.072;2023-08-21T00:52:05;12.23;;;5.78;;
56039;SDS011;43937;41.366;2.072;2023-08-21T00:54:34;16.33;;;5.78;;
56039;SDS011;43937;41.366;2.072;2023-08-21T00:57:00;17.55;;;5.85;;
56039;SDS011;43937;41.366;2.072;2023-08-21T00:59:26;17.35;;;6.03;;
56039;SDS011;43937;41.366;2.072;2023-08-21T01:01:51;10.80;;;5.35;;
56039;SDS011;43937;41.366;2.072;2023-08-21T01:04:17;11.32;;;5.07;;
56039;SDS011;43937;41.366;2.072;2023-08-21T01:06:43;17.58;;;5.95;;
56039;SDS011;43937;41.366;2.072;2023-08-21T01:11:40;15.30;;;5.30;;
56039;SDS011;43937;41.366;2.072;2023-08-21T01:14:17;11.70;;;5.05;;
56039;SDS011;43937;41.366;2.072;2023-08-21T01:16:53;18.77;;;5.53;;
56039;SDS011;43937;41.366;2.072;2023-08-21T01:19:26;15.00;;;5.40;;
56039;SDS011;43937;41.366;2.072;2023-08-21T01:21:57;14.30;;;5.10;;
56039;SDS011;43937;41.366;2.072;2023-08-21T01:24:24;13.30;;;5.70;;
56039;SDS011;43937;41.366;2.072;2023-08-21T01:26:49;11.15;;;5.30;;
56039;SDS011;43937;41.366;2.072;2023-08-21T01:29:15;19.50;;;5.80;;
56039;SDS011;43937;41.366;2.072;2023-08-21T01:31:40;13.57;;;5.70;;
56039;SDS011;43937;41.366;2.072;2023-08-21T01:34:11;17.37;;;5.80;;
56039;SDS011;43937;41.366;2.072;2023-08-21T01:36:39;15.32;;;5.70;;
56039;SDS011;43937;41.366;2.072;2023-08-21T01:39:05;10.77;;;5.57;;
56039;SDS011;43937;41.366;2.072;2023-08-21T01:41:31;11.75;;;6.03;;
56039;SDS011;43937;41.366;2.072;2023-08-21T01:43:57;14.80;;;5.97;;
56039;SDS011;43937;41.366;2.072;2023-08-21T01:46:22;13.93;;;5.60;;
56039;SDS011;43937;41.366;2.072;2023-08-21T01:48:48;12.90;;;6.07;;
56039;SDS011;43937;41.366;2.072;2023-08-21T01:51:13;11.55;;;5.95;;
56039;SDS011;43937;41.366;2.072;2023-08-21T01:53:39;11.45;;;6.38;;
56039;SDS011;43937;41.366;2.072;2023-08-21T01:56:04;10.68;;;5.70;;
56039;SDS011;43937;41.366;2.072;2023-08-21T01:58:30;12.38;;;6.50;;
56039;SDS011;43937;41.366;2.072;2023-08-21T02:00:55;15.77;;;6.47;;
56039;SDS011;43937;41.366;2.072;2023-08-21T02:03:20;12.80;;;6.30;;
56039;SDS011;43937;41.366;2.072;2023-08-21T02:05:46;11.80;;;6.05;;
56039;SDS011;43937;41.366;2.072;2023-08-21T02:08:12;13.55;;;6.20;;
56039;SDS011;43937;41.366;2.072;2023-08-21T02:10:46;14.27;;;6.40;;
56039;SDS011;43937;41.366;2.072;2023-08-21T02:13:13;17.83;;;6.85;;
56039;SDS011;43937;41.366;2.072;2023-08-21T02:15:39;11.15;;;6.43;;
56039;SDS011;43937;41.366;2.072;2023-08-21T02:18:04;13.20;;;6.50;;
56039;SDS011;43937;41.366;2.072;2023-08-21T02:20:30;17.65;;;6.78;;
56039;SDS011;43937;41.366;2.072;2023-08-21T02:22:55;14.63;;;6.50;;
56039;SDS011;43937;41.366;2.072;2023-08-21T02:25:21;16.13;;;6.63;;
56039;SDS011;43937;41.366;2.072;2023-08-21T02:27:46;10.43;;;6.25;;
56039;SDS011;43937;41.366;2.072;2023-08-21T02:30:12;16.98;;;6.53;;
56039;SDS011;43937;41.366;2.072;2023-08-21T02:32:37;14.43;;;6.95;;
56039;SDS011;43937;41.366;2.072;2023-08-21T02:35:04;17.40;;;6.85;;
56039;SDS011;43937;41.366;2.072;2023-08-21T02:37:31;16.40;;;6.97;;
56039;SDS011;43937;41.366;2.072;2023-08-21T02:39:56;14.07;;;7.00;;
56039;SDS011;43937;41.366;2.072;2023-08-21T02:42:21;13.90;;;6.97;;
56039;SDS011;43937;41.366;2.072;2023-08-21T02:44:47;13.30;;;7.22;;
56039;SDS011;43937;41.366;2.072;2023-08-21T02:47:12;11.30;;;7.00;;
56039;SDS011;43937;41.366;2.072;2023-08-21T02:49:38;17.77;;;7.57;;
56039;SDS011;43937;41.366;2.072;2023-08-21T02:52:03;17.20;;;7.30;;
56039;SDS011;43937;41.366;2.072;2023-08-21T02:54:29;14.18;;;7.28;;
56039;SDS011;43937;41.366;2.072;2023-08-21T02:56:54;13.57;;;7.70;;
56039;SDS011;43937;41.366;2.072;2023-08-21T02:59:20;12.13;;;7.72;;
56039;SDS011;43937;41.366;2.072;2023-08-21T03:01:45;18.38;;;7.50;;
56039;SDS011;43937;41.366;2.072;2023-08-21T03:04:10;15.32;;;7.38;;
56039;SDS011;43937;41.366;2.072;2023-08-21T03:06:36;12.73;;;7.35;;
56039;SDS011;43937;41.366;2.072;2023-08-21T03:09:01;17.27;;;7.90;;
56039;SDS011;43937;41.366;2.072;2023-08-21T03:11:27;15.02;;;6.88;;
56039;SDS011;43937;41.366;2.072;2023-08-21T03:13:52;16.35;;;7.93;;
56039;SDS011;43937;41.366;2.072;2023-08-21T03:16:18;18.40;;;8.00;;
56039;SDS011;43937;41.366;2.072;2023-08-21T03:21:25;13.95;;;7.53;;
56039;SDS011;43937;41.366;2.072;2023-08-21T03:23:53;15.80;;;8.27;;
56039;SDS011;43937;41.366;2.072;2023-08-21T03:26:22;13.97;;;8.27;;
56039;SDS011;43937;41.366;2.072;2023-08-21T03:28:48;14.57;;;8.35;;
56039;SDS011;43937;41.366;2.072;2023-08-21T03:31:14;16.92;;;8.15;;
56039;SDS011;43937;41.366;2.072;2023-08-21T03:33:40;16.73;;;8.40;;
56039;SDS011;43937;41.366;2.072;2023-08-21T03:36:05;15.38;;;8.20;;
56039;SDS011;43937;41.366;2.072;2023-08-21T03:38:32;15.40;;;8.50;;
56039;SDS011;43937;41.366;2.072;2023-08-21T03:40:57;17.00;;;7.85;;
56039;SDS011;43937;41.366;2.072;2023-08-21T03:43:23;13.50;;;8.48;;
56039;SDS011;43937;41.366;2.072;2023-08-21T03:45:48;20.08;;;8.40;;
56039;SDS011;43937;41.366;2.072;2023-08-21T03:48:13;19.85;;;9.18;;
56039;SDS011;43937;41.366;2.072;2023-08-21T03:50:39;20.40;;;8.85;;
56039;SDS011;43937;41.366;2.072;2023-08-21T03:53:04;16.92;;;8.73;;
56039;SDS011;43937;41.366;2.072;2023-08-21T03:55:30;14.15;;;8.35;;
56039;SDS011;43937;41.366;2.072;2023-08-21T03:57:55;12.90;;;8.05;;
56039;SDS011;43937;41.366;2.072;2023-08-21T04:00:21;16.65;;;8.85;;
56039;SDS011;43937;41.366;2.072;2023-08-21T04:02:47;23.75;;;8.80;;
56039;SDS011;43937;41.366;2.072;2023-08-21T04:05:12;15.82;;;8.95;;
56039;SDS011;43937;41.366;2.072;2023-08-21T04:07:37;15.10;;;8.65;;
56039;SDS011;43937;41.366;2.072;2023-08-21T04:10:03;17.15;;;8.30;;
56039;SDS011;43937;41.366;2.072;2023-08-21T04:12:29;18.23;;;8.35;;
56039;SDS011;43937;41.366;2.072;2023-08-21T04:14:54;18.35;;;8.65;;
56039;SDS011;43937;41.366;2.072;2023-08-21T04:17:21;18.92;;;8.38;;
56039;SDS011;43937;41.366;2.072;2023-08-21T04:19:47;15.23;;;8.52;;
56039;SDS011;43937;41.366;2.072;2023-08-21T04:22:12;13.57;;;8.30;;
56039;SDS011;43937;41.366;2.072;2023-08-21T04:24:39;14.05;;;8.40;;
56039;SDS011;43937;41.366;2.072;2023-08-21T04:27:05;13.23;;;7.97;;
56039;SDS011;43937;41.366;2.072;2023-08-21T04:29:30;21.92;;;8.88;;
56039;SDS011;43937;41.366;2.072;2023-08-21T04:31:56;19.58;;;8.82;;
56039;SDS011;43937;41.366;2.072;2023-08-21T04:34:21;12.63;;;8.45;;
56039;SDS011;43937;41.366;2.072;2023-08-21T04:36:46;23.33;;;9.27;;
56039;SDS011;43937;41.366;2.072;2023-08-21T04:39:12;17.38;;;8.52;;
56039;SDS011;43937;41.366;2.072;2023-08-21T04:41:39;15.90;;;8.68;;
56039;SDS011;43937;41.366;2.072;2023-08-21T04:44:05;14.60;;;9.07;;
56039;SDS011;43937;41.366;2.072;2023-08-21T04:46:30;16.20;;;9.13;;
56039;SDS011;43937;41.366;2.072;2023-08-21T04:48:55;15.90;;;8.80;;
56039;SDS011;43937;41.366;2.072;2023-08-21T04:51:21;23.30;;;8.90;;
56039;SDS011;43937;41.366;2.072;2023-08-21T04:53:46;13.65;;;8.95;;
56039;SDS011;43937;41.366;2.072;2023-08-21T04:56:12;19.17;;;8.77;;
56039;SDS011;43937;41.366;2.072;2023-08-21T04:58:37;16.35;;;8.98;;
56039;SDS011;43937;41.366;2.072;2023-08-21T05:01:04;15.63;;;8.40;;
56039;SDS011;43937;41.366;2.072;2023-08-21T05:03:30;15.05;;;8.68;;
56039;SDS011;43937;41.366;2.072;2023-08-21T05:05:55;19.30;;;8.30;;
56039;SDS011;43937;41.366;2.072;2023-08-21T05:08:22;15.43;;;8.20;;
56039;SDS011;43937;41.366;2.072;2023-08-21T05:10:53;18.00;;;8.32;;
56039;SDS011;43937;41.366;2.072;2023-08-21T05:13:21;15.52;;;8.00;;
56039;SDS011;43937;41.366;2.072;2023-08-21T05:15:56;11.75;;;8.25;;
56039;SDS011;43937;41.366;2.072;2023-08-21T05:18:23;15.35;;;8.27;;
56039;SDS011;43937;41.366;2.072;2023-08-21T05:20:50;21.65;;;8.50;;
56039;SDS011;43937;41.366;2.072;2023-08-21T05:23:19;16.33;;;8.00;;
56039;SDS011;43937;41.366;2.072;2023-08-21T05:25:46;16.50;;;9.20;;
56039;SDS011;43937;41.366;2.072;2023-08-21T05:28:13;11.65;;;8.55;;
56039;SDS011;43937;41.366;2.072;2023-08-21T05:30:38;14.82;;;8.25;;
56039;SDS011;43937;41.366;2.072;2023-08-21T05:33:03;15.82;;;8.38;;
56039;SDS011;43937;41.366;2.072;2023-08-21T05:35:33;17.40;;;8.35;;
56039;SDS011;43937;41.366;2.072;2023-08-21T05:38:00;18.90;;;8.40;;
56039;SDS011;43937;41.366;2.072;2023-08-21T05:40:26;18.73;;;8.35;;
56039;SDS011;43937;41.366;2.072;2023-08-21T05:42:52;16.00;;;8.60;;
56039;SDS011;43937;41.366;2.072;2023-08-21T05:45:17;24.30;;;9.13;;
56039;SDS011;43937;41.366;2.072;2023-08-21T05:47:43;19.20;;;8.60;;
56039;SDS011;43937;41.366;2.072;2023-08-21T05:50:08;22.65;;;8.70;;
56039;SDS011;43937;41.366;2.072;2023-08-21T05:52:34;23.48;;;8.88;;
56039;SDS011;43937;41.366;2.072;2023-08-21T05:54:59;15.60;;;8.52;;
56039;SDS011;43937;41.366;2.072;2023-08-21T05:57:25;11.98;;;8.13;;
56039;SDS011;43937;41.366;2.072;2023-08-21T05:59:50;12.25;;;8.70;;
56039;SDS011;43937;41.366;2.072;2023-08-21T06:02:16;18.98;;;8.80;;
56039;SDS011;43937;41.366;2.072;2023-08-21T06:04:41;21.08;;;8.70;;
56039;SDS011;43937;41.366;2.072;2023-08-21T06:07:08;24.08;;;16.85;;
56039;SDS011;43937;41.366;2.072;2023-08-21T06:09:34;22.65;;;8.10;;
56039;SDS011;43937;41.366;2.072;2023-08-21T06:12:01;15.52;;;8.20;;
56039;SDS011;43937;41.366;2.072;2023-08-21T06:14:30;16.20;;;7.53;;
56039;SDS011;43937;41.366;2.072;2023-08-21T06:16:59;18.25;;;7.18;;
56039;SDS011;43937;41.366;2.072;2023-08-21T06:19:27;23.42;;;7.78;;
56039;SDS011;43937;41.366;2.072;2023-08-21T06:21:54;12.35;;;7.45;;
56039;SDS011;43937;41.366;2.072;2023-08-21T06:24:19;23.20;;;8.07;;
56039;SDS011;43937;41.366;2.072;2023-08-21T06:26:45;14.93;;;7.80;;
56039;SDS011;43937;41.366;2.072;2023-08-21T06:29:10;18.83;;;7.85;;
56039;SDS011;43937;41.366;2.072;2023-08-21T06:31:36;16.50;;;7.05;;
56039;SDS011;43937;41.366;2.072;2023-08-21T06:34:01;16.77;;;7.05;;
56039;SDS011;43937;41.366;2.072;2023-08-21T06:36:27;18.20;;;7.35;;
56039;SDS011;43937;41.366;2.072;2023-08-21T06:38:52;14.82;;;7.63;;
56039;SDS011;43937;41.366;2.072;2023-08-21T06:41:18;16.05;;;6.75;;
56039;SDS011;43937;41.366;2.072;2023-08-21T06:43:44;14.45;;;6.68;;
56039;SDS011;43937;41.366;2.072;2023-08-21T06:46:10;18.10;;;7.20;;
56039;SDS011;43937;41.366;2.072;2023-08-21T06:48:37;17.52;;;7.72;;
56039;SDS011;43937;41.366;2.072;2023-08-21T06:51:05;16.88;;;6.97;;
56039;SDS011;43937;41.366;2.072;2023-08-21T06:53:31;20.95;;;7.15;;
56039;SDS011;43937;41.366;2.072;2023-08-21T06:55:57;13.30;;;7.05;;
56039;SDS011;43937;41.366;2.072;2023-08-21T06:58:22;13.63;;;6.63;;
56039;SDS011;43937;41.366;2.072;2023-08-21T07:00:48;19.52;;;7.35;;
56039;SDS011;43937;41.366;2.072;2023-08-21T07:03:13;12.40;;;6.63;;
56039;SDS011;43937;41.366;2.072;2023-08-21T07:05:39;14.63;;;7.03;;
56039;SDS011;43937;41.366;2.072;2023-08-21T07:08:05;20.77;;;7.28;;
56039;SDS011;43937;41.366;2.072;2023-08-21T07:10:35;17.95;;;7.70;;
56039;SDS011;43937;41.366;2.072;2023-08-21T07:13:03;20.73;;;7.07;;
56039;SDS011;43937;41.366;2.072;2023-08-21T07:15:29;15.40;;;7.47;;
56039;SDS011;43937;41.366;2.072;2023-08-21T07:17:55;15.75;;;7.00;;
56039;SDS011;43937;41.366;2.072;2023-08-21T07:20:21;10.98;;;6.68;;
56039;SDS011;43937;41.366;2.072;2023-08-21T07:22:47;22.55;;;7.47;;
56039;SDS011;43937;41.366;2.072;2023-08-21T07:25:12;14.05;;;6.65;;
56039;SDS011;43937;41.366;2.072;2023-08-21T07:27:38;12.57;;;6.22;;
56039;SDS011;43937;41.366;2.072;2023-08-21T07:30:05;16.20;;;6.78;;
56039;SDS011;43937;41.366;2.072;2023-08-21T07:32:31;16.58;;;6.68;;
56039;SDS011;43937;41.366;2.072;2023-08-21T07:34:57;14.55;;;6.55;;
56039;SDS011;43937;41.366;2.072;2023-08-21T07:37:22;16.45;;;6.80;;
56039;SDS011;43937;41.366;2.072;2023-08-21T07:39:47;16.10;;;6.38;;
56039;SDS011;43937;41.366;2.072;2023-08-21T07:42:13;16.75;;;6.55;;
56039;SDS011;43937;41.366;2.072;2023-08-21T07:47:04;20.95;;;7.03;;
56039;SDS011;43937;41.366;2.072;2023-08-21T07:49:30;16.27;;;7.18;;
56039;SDS011;43937;41.366;2.072;2023-08-21T07:51:58;18.00;;;6.30;;
56039;SDS011;43937;41.366;2.072;2023-08-21T07:54:25;16.10;;;6.70;;
56039;SDS011;43937;41.366;2.072;2023-08-21T07:56:51;18.60;;;7.10;;
56039;SDS011;43937;41.366;2.072;2023-08-21T07:59:16;20.67;;;6.57;;
56039;SDS011;43937;41.366;2.072;2023-08-21T08:01:42;22.73;;;6.90;;
56039;SDS011;43937;41.366;2.072;2023-08-21T08:04:08;17.95;;;7.18;;
56039;SDS011;43937;41.366;2.072;2023-08-21T08:06:33;16.40;;;6.70;;
56039;SDS011;43937;41.366;2.072;2023-08-21T08:08:59;13.32;;;6.63;;
56039;SDS011;43937;41.366;2.072;2023-08-21T08:11:25;17.77;;;6.97;;
56039;SDS011;43937;41.366;2.072;2023-08-21T08:13:51;20.45;;;6.53;;
56039;SDS011;43937;41.366;2.072;2023-08-21T08:16:16;22.67;;;7.00;;
56039;SDS011;43937;41.366;2.072;2023-08-21T08:18:42;14.32;;;7.18;;
56039;SDS011;43937;41.366;2.072;2023-08-21T08:21:07;14.57;;;6.28;;
56039;SDS011;43937;41.366;2.072;2023-08-21T08:23:34;29.73;;;7.03;;
56039;SDS011;43937;41.366;2.072;2023-08-21T08:25:59;15.40;;;6.50;;
56039;SDS011;43937;41.366;2.072;2023-08-21T08:28:25;46.67;;;10.77;;
56039;SDS011;43937;41.366;2.072;2023-08-21T08:30:50;23.30;;;7.53;;
56039;SDS011;43937;41.366;2.072;2023-08-21T08:33:16;14.30;;;5.53;;
56039;SDS011;43937;41.366;2.072;2023-08-21T08:35:42;24.25;;;6.25;;
56039;SDS011;43937;41.366;2.072;2023-08-21T08:38:07;11.07;;;6.03;;
56039;SDS011;43937;41.366;2.072;2023-08-21T08:40:33;16.70;;;6.18;;
56039;SDS011;43937;41.366;2.072;2023-08-21T08:42:59;17.50;;;6.53;;
56039;SDS011;43937;41.366;2.072;2023-08-21T08:45:28;17.88;;;6.32;;
56039;SDS011;43937;41.366;2.072;2023-08-21T08:48:00;14.25;;;6.03;;
56039;SDS011;43937;41.366;2.072;2023-08-21T08:50:28;17.37;;;6.27;;
56039;SDS011;43937;41.366;2.072;2023-08-21T08:52:56;21.10;;;6.80;;
56039;SDS011;43937;41.366;2.072;2023-08-21T08:55:23;22.13;;;7.07;;
56039;SDS011;43937;41.366;2.072;2023-08-21T08:57:49;18.95;;;6.20;;
56039;SDS011;43937;41.366;2.072;2023-08-21T09:00:15;18.50;;;6.47;;
56039;SDS011;43937;41.366;2.072;2023-08-21T09:02:40;18.00;;;6.40;;
56039;SDS011;43937;41.366;2.072;2023-08-21T09:05:06;23.70;;;6.15;;
56039;SDS011;43937;41.366;2.072;2023-08-21T09:07:33;17.45;;;6.32;;
56039;SDS011;43937;41.366;2.072;2023-08-21T09:09:59;22.55;;;7.20;;
56039;SDS011;43937;41.366;2.072;2023-08-21T09:12:25;21.75;;;7.47;;
56039;SDS011;43937;41.366;2.072;2023-08-21T09:14:51;13.30;;;6.20;;
56039;SDS011;43937;41.366;2.072;2023-08-21T09:17:16;24.52;;;6.57;;
56039;SDS011;43937;41.366;2.072;2023-08-21T09:19:43;19.45;;;7.20;;
56039;SDS011;43937;41.366;2.072;2023-08-21T09:24:41;21.00;;;7.97;;
56039;SDS011;43937;41.366;2.072;2023-08-21T09:27:25;19.73;;;7.60;;
56039;SDS011;43937;41.366;2.072;2023-08-21T09:29:51;21.83;;;8.02;;
56039;SDS011;43937;41.366;2.072;2023-08-21T09:32:16;30.85;;;8.35;;
56039;SDS011;43937;41.366;2.072;2023-08-21T09:34:42;22.13;;;7.72;;
56039;SDS011;43937;41.366;2.072;2023-08-21T09:37:07;25.55;;;8.07;;
56039;SDS011;43937;41.366;2.072;2023-08-21T09:39:35;20.42;;;7.78;;
56039;SDS011;43937;41.366;2.072;2023-08-21T09:42:07;23.30;;;7.45;;
56039;SDS011;43937;41.366;2.072;2023-08-21T09:44:40;18.65;;;7.60;;
56039;SDS011;43937;41.366;2.072;2023-08-21T09:47:08;17.90;;;7.32;;
56039;SDS011;43937;41.366;2.072;2023-08-21T09:49:35;25.73;;;7.78;;
56039;SDS011;43937;41.366;2.072;2023-08-21T09:52:02;16.17;;;7.00;;
56039;SDS011;43937;41.366;2.072;2023-08-21T09:54:31;16.33;;;6.97;;
56039;SDS011;43937;41.366;2.072;2023-08-21T09:57:00;17.20;;;7.32;;
56039;SDS011;43937;41.366;2.072;2023-08-21T09:59:27;18.00;;;6.45;;
56039;SDS011;43937;41.366;2.072;2023-08-21T10:01:54;17.60;;;5.57;;
56039;SDS011;43937;41.366;2.072;2023-08-21T10:04:22;18.58;;;6.60;;
56039;SDS011;43937;41.366;2.072;2023-08-21T10:06:48;11.70;;;6.43;;
56039;SDS011;43937;41.366;2.072;2023-08-21T10:09:16;19.02;;;7.50;;
56039;SDS011;43937;41.366;2.072;2023-08-21T10:11:42;17.73;;;7.10;;
56039;SDS011;43937;41.366;2.072;2023-08-21T10:14:09;17.98;;;5.97;;
56039;SDS011;43937;41.366;2.072;2023-08-21T10:16:35;14.80;;;5.18;;
56039;SDS011;43937;41.366;2.072;2023-08-21T10:19:04;13.80;;;6.78;;
56039;SDS011;43937;41.366;2.072;2023-08-21T10:21:34;25.58;;;8.32;;
56039;SDS011;43937;41.366;2.072;2023-08-21T10:24:00;16.13;;;6.15;;
56039;SDS011;43937;41.366;2.072;2023-08-21T10:26:25;19.05;;;7.10;;
56039;SDS011;43937;41.366;2.072;2023-08-21T10:28:55;20.58;;;5.85;;
56039;SDS011;43937;41.366;2.072;2023-08-21T10:33:53;20.90;;;5.78;;
56039;SDS011;43937;41.366;2.072;2023-08-21T10:36:38;15.20;;;6.18;;
56039;SDS011;43937;41.366;2.072;2023-08-21T10:41:38;17.08;;;6.10;;
56039;SDS011;43937;41.366;2.072;2023-08-21T10:44:05;14.63;;;6.03;;
56039;SDS011;43937;41.366;2.072;2023-08-21T10:46:49;18.00;;;5.63;;
56039;SDS011;43937;41.366;2.072;2023-08-21T10:49:15;21.35;;;5.85;;
56039;SDS011;43937;41.366;2.072;2023-08-21T10:51:41;14.30;;;5.65;;
56039;SDS011;43937;41.366;2.072;2023-08-21T10:54:12;13.32;;;5.60;;
56039;SDS011;43937;41.366;2.072;2023-08-21T10:56:38;13.57;;;5.40;;
56039;SDS011;43937;41.366;2.072;2023-08-21T10:59:03;18.00;;;5.85;;
56039;SDS011;43937;41.366;2.072;2023-08-21T11:01:41;12.32;;;5.55;;
56039;SDS011;43937;41.366;2.072;2023-08-21T11:04:09;12.25;;;4.75;;
56039;SDS011;43937;41.366;2.072;2023-08-21T11:06:35;11.85;;;5.68;;
56039;SDS011;43937;41.366;2.072;2023-08-21T11:09:02;18.88;;;5.55;;
56039;SDS011;43937;41.366;2.072;2023-08-21T11:11:28;14.23;;;5.47;;
56039;SDS011;43937;41.366;2.072;2023-08-21T11:13:54;17.15;;;6.07;;
56039;SDS011;43937;41.366;2.072;2023-08-21T11:16:20;12.70;;;5.40;;
56039;SDS011;43937;41.366;2.072;2023-08-21T11:18:45;12.63;;;4.88;;
56039;SDS011;43937;41.366;2.072;2023-08-21T11:21:11;12.95;;;5.50;;
56039;SDS011;43937;41.366;2.072;2023-08-21T11:23:40;13.70;;;5.68;;
56039;SDS011;43937;41.366;2.072;2023-08-21T11:26:09;11.25;;;5.20;;
56039;SDS011;43937;41.366;2.072;2023-08-21T11:28:35;15.90;;;5.28;;
56039;SDS011;43937;41.366;2.072;2023-08-21T11:31:01;18.63;;;5.70;;
56039;SDS011;43937;41.366;2.072;2023-08-21T11:33:27;12.77;;;4.95;;
56039;SDS011;43937;41.366;2.072;2023-08-21T11:35:53;39.47;;;7.25;;
56039;SDS011;43937;41.366;2.072;2023-08-21T11:38:20;18.02;;;5.85;;
56039;SDS011;43937;41.366;2.072;2023-08-21T11:43:44;20.83;;;6.00;;
56039;SDS011;43937;41.366;2.072;2023-08-21T11:46:09;37.03;;;6.70;;
56039;SDS011;43937;41.366;2.072;2023-08-21T11:48:37;20.17;;;5.80;;
56039;SDS011;43937;41.366;2.072;2023-08-21T11:51:03;17.70;;;5.50;;
56039;SDS011;43937;41.366;2.072;2023-08-21T11:53:41;10.68;;;4.68;;
56039;SDS011;43937;41.366;2.072;2023-08-21T11:56:11;20.98;;;4.70;;
56039;SDS011;43937;41.366;2.072;2023-08-21T11:58:39;19.90;;;4.97;;
56039;SDS011;43937;41.366;2.072;2023-08-21T12:01:05;11.52;;;4.50;;
56039;SDS011;43937;41.366;2.072;2023-08-21T12:03:35;13.18;;;5.10;;
56039;SDS011;43937;41.366;2.072;2023-08-21T12:06:07;14.57;;;5.00;;
56039;SDS011;43937;41.366;2.072;2023-08-21T12:08:34;11.80;;;5.30;;
56039;SDS011;43937;41.366;2.072;2023-08-21T12:11:00;18.27;;;4.60;;
56039;SDS011;43937;41.366;2.072;2023-08-21T12:13:26;10.13;;;4.57;;
56039;SDS011;43937;41.366;2.072;2023-08-21T12:15:52;18.38;;;5.32;;
56039;SDS011;43937;41.366;2.072;2023-08-21T12:18:17;13.63;;;4.53;;
56039;SDS011;43937;41.366;2.072;2023-08-21T12:20:42;20.95;;;5.13;;
56039;SDS011;43937;41.366;2.072;2023-08-21T12:23:08;14.02;;;4.90;;
56039;SDS011;43937;41.366;2.072;2023-08-21T12:25:33;9.65;;;4.93;;
56039;SDS011;43937;41.366;2.072;2023-08-21T12:27:59;24.52;;;5.22;;
56039;SDS011;43937;41.366;2.072;2023-08-21T12:30:24;11.82;;;4.65;;
56039;SDS011;43937;41.366;2.072;2023-08-21T12:32:50;18.00;;;5.20;;
56039;SDS011;43937;41.366;2.072;2023-08-21T12:35:15;9.60;;;5.03;;
56039;SDS011;43937;41.366;2.072;2023-08-21T12:37:41;12.18;;;4.45;;
56039;SDS011;43937;41.366;2.072;2023-08-21T12:40:06;12.43;;;5.32;;
56039;SDS011;43937;41.366;2.072;2023-08-21T12:42:33;14.38;;;5.50;;
56039;SDS011;43937;41.366;2.072;2023-08-21T12:44:58;11.75;;;4.90;;
56039;SDS011;43937;41.366;2.072;2023-08-21T12:47:24;16.70;;;5.22;;
56039;SDS011;43937;41.366;2.072;2023-08-21T12:49:49;16.08;;;6.35;;
56039;SDS011;43937;41.366;2.072;2023-08-21T12:52:15;9.45;;;4.85;;
56039;SDS011;43937;41.366;2.072;2023-08-21T12:54:40;13.90;;;5.43;;
56039;SDS011;43937;41.366;2.072;2023-08-21T12:57:06;17.50;;;5.20;;
56039;SDS011;43937;41.366;2.072;2023-08-21T12:59:32;12.80;;;5.13;;
56039;SDS011;43937;41.366;2.072;2023-08-21T13:02:00;14.60;;;5.05;;
56039;SDS011;43937;41.366;2.072;2023-08-21T13:04:26;13.60;;;4.88;;
56039;SDS011;43937;41.366;2.072;2023-08-21T13:06:52;14.48;;;5.25;;
56039;SDS011;43937;41.366;2.072;2023-08-21T13:09:17;14.07;;;5.45;;
56039;SDS011;43937;41.366;2.072;2023-08-21T13:11:43;10.02;;;5.20;;
56039;SDS011;43937;41.366;2.072;2023-08-21T13:14:08;15.82;;;5.50;;
56039;SDS011;43937;41.366;2.072;2023-08-21T13:16:34;13.48;;;5.72;;
56039;SDS011;43937;41.366;2.072;2023-08-21T13:18:59;15.38;;;5.57;;
56039;SDS011;43937;41.366;2.072;2023-08-21T13:21:25;12.23;;;5.50;;
56039;SDS011;43937;41.366;2.072;2023-08-21T13:23:50;11.75;;;5.38;;
56039;SDS011;43937;41.366;2.072;2023-08-21T13:26:16;10.63;;;5.38;;
56039;SDS011;43937;41.366;2.072;2023-08-21T13:28:41;15.10;;;5.70;;
56039;SDS011;43937;41.366;2.072;2023-08-21T13:31:06;16.83;;;5.50;;
56039;SDS011;43937;41.366;2.072;2023-08-21T13:33:43;13.35;;;5.70;;
56039;SDS011;43937;41.366;2.072;2023-08-21T13:36:09;12.45;;;5.70;;
56039;SDS011;43937;41.366;2.072;2023-08-21T13:38:35;16.02;;;5.30;;
56039;SDS011;43937;41.366;2.072;2023-08-21T13:41:00;11.45;;;4.72;;
56039;SDS011;43937;41.366;2.072;2023-08-21T13:43:25;11.20;;;5.38;;
56039;SDS011;43937;41.366;2.072;2023-08-21T13:45:51;11.82;;;5.47;;
56039;SDS011;43937;41.366;2.072;2023-08-21T13:48:16;13.75;;;5.65;;
56039;SDS011;43937;41.366;2.072;2023-08-21T13:50:42;14.07;;;5.35;;
56039;SDS011;43937;41.366;2.072;2023-08-21T13:53:08;15.55;;;5.30;;
56039;SDS011;43937;41.366;2.072;2023-08-21T13:55:33;13.77;;;5.45;;
56039;SDS011;43937;41.366;2.072;2023-08-21T13:57:59;14.57;;;6.00;;
56039;SDS011;43937;41.366;2.072;2023-08-21T14:00:25;9.50;;;5.32;;
56039;SDS011;43937;41.366;2.072;2023-08-21T14:02:50;14.60;;;6.43;;
56039;SDS011;43937;41.366;2.072;2023-08-21T14:05:16;10.23;;;4.90;;
56039;SDS011;43937;41.366;2.072;2023-08-21T14:07:42;12.00;;;5.55;;
56039;SDS011;43937;41.366;2.072;2023-08-21T14:10:08;12.88;;;5.20;;
56039;SDS011;43937;41.366;2.072;2023-08-21T14:12:34;15.15;;;5.40;;
56039;SDS011;43937;41.366;2.072;2023-08-21T14:14:59;12.35;;;5.35;;
56039;SDS011;43937;41.366;2.072;2023-08-21T14:17:25;9.45;;;5.45;;
56039;SDS011;43937;41.366;2.072;2023-08-21T14:19:50;10.82;;;5.45;;
56039;SDS011;43937;41.366;2.072;2023-08-21T14:22:16;10.88;;;5.30;;
56039;SDS011;43937;41.366;2.072;2023-08-21T14:24:41;8.93;;;5.28;;
56039;SDS011;43937;41.366;2.072;2023-08-21T14:27:07;10.85;;;4.50;;
56039;SDS011;43937;41.366;2.072;2023-08-21T14:29:32;9.32;;;4.93;;
56039;SDS011;43937;41.366;2.072;2023-08-21T14:31:58;14.23;;;5.25;;
56039;SDS011;43937;41.366;2.072;2023-08-21T14:34:25;9.80;;;5.55;;
56039;SDS011;43937;41.366;2.072;2023-08-21T14:36:51;13.73;;;5.70;;
56039;SDS011;43937;41.366;2.072;2023-08-21T14:39:17;15.05;;;5.68;;
56039;SDS011;43937;41.366;2.072;2023-08-21T14:41:42;10.00;;;5.63;;
56039;SDS011;43937;41.366;2.072;2023-08-21T14:44:08;14.20;;;5.65;;
56039;SDS011;43937;41.366;2.072;2023-08-21T14:46:34;11.25;;;5.10;;
56039;SDS011;43937;41.366;2.072;2023-08-21T14:48:59;10.00;;;5.05;;